Kandrian Airport


Codes: PG-KDR/KDR
Name: Kandrian Airport
City: Kandrian
Country: Papua New Guinea
Elevation: 280 ft.
Wikipedia:

Photos at Kandrian Airport


   Photos courtesy of SpottingLog. You can add your own sightings and photos by signing up for a free trial today.



No photos found.

Weather at Kandrian Airport


Time (UTC)DescriptionTempratureWindCloud coverageVisibilityPressureHumidity
19-Apr-2024 03:00Broken Clouds29°C9 mph, SW70%10000m1007hPa72%
19-Apr-2024 06:00Light Rain29°C7 mph, SW75%10000m1007hPa73%
19-Apr-2024 09:00Overcast Clouds28°C2 mph, NE87%10000m1008hPa78%
19-Apr-2024 12:00Overcast Clouds26°C4 mph, N86%10000m1010hPa86%
19-Apr-2024 15:00Overcast Clouds26°C4 mph, NE94%10000m1009hPa88%
19-Apr-2024 18:00Overcast Clouds25°C4 mph, N93%10000m1008hPa88%
19-Apr-2024 21:00Overcast Clouds26°C7 mph, N86%10000m1010hPa86%
20-Apr-2024 00:00Light Rain29°C7 mph, NW59%10000m1011hPa69%
20-Apr-2024 03:00Light Rain30°C7 mph, SW85%10000m1008hPa68%
20-Apr-2024 06:00Light Rain29°C4 mph, S88%10000m1007hPa72%
20-Apr-2024 09:00Light Rain27°C2 mph, SE59%10000m1008hPa81%
20-Apr-2024 12:00Broken Clouds26°C2 mph, NE54%10000m1010hPa85%
20-Apr-2024 15:00Overcast Clouds26°C4 mph, N100%10000m1009hPa87%
20-Apr-2024 18:00Overcast Clouds25°C4 mph, N100%10000m1009hPa86%
20-Apr-2024 21:00Broken Clouds26°C4 mph, N66%10000m1010hPa85%
21-Apr-2024 00:00Scattered Clouds29°C2 mph, W44%10000m1011hPa67%
21-Apr-2024 03:00Scattered Clouds30°C7 mph, SW31%10000m1007hPa66%
21-Apr-2024 06:00Broken Clouds29°C4 mph, S55%10000m1006hPa68%
21-Apr-2024 09:00Broken Clouds27°C2 mph, SE52%10000m1009hPa80%
21-Apr-2024 12:00Broken Clouds26°C4 mph, NE61%10000m1010hPa86%
21-Apr-2024 15:00Light Rain26°C4 mph, NW83%10000m1009hPa86%
21-Apr-2024 18:00Light Rain26°C4 mph, NW81%10000m1008hPa84%
21-Apr-2024 21:00Overcast Clouds26°C4 mph, NW87%10000m1010hPa83%
22-Apr-2024 00:00Light Rain28°C4 mph, W80%10000m1010hPa72%
22-Apr-2024 03:00Light Rain29°C4 mph, SW75%10000m1008hPa71%
22-Apr-2024 06:00Light Rain28°C2 mph, S65%10000m1007hPa77%
22-Apr-2024 09:00Light Rain26°C2 mph, E44%10000m1008hPa83%
22-Apr-2024 12:00Broken Clouds26°C4 mph, NE66%10000m1010hPa88%
22-Apr-2024 15:00Light Rain25°C2 mph, NE94%10000m1009hPa88%
22-Apr-2024 18:00Light Rain25°C2 mph, NE97%10000m1008hPa88%
22-Apr-2024 21:00Light Rain25°C2 mph, N100%10000m1010hPa86%
23-Apr-2024 00:00Light Rain29°C2 mph, SW100%10000m1011hPa71%
23-Apr-2024 03:00Light Rain28°C4 mph, SW100%10000m1008hPa74%
23-Apr-2024 06:00Light Rain29°C4 mph, S99%10000m1007hPa72%
23-Apr-2024 09:00Light Rain27°C4 mph, S99%10000m1008hPa83%
23-Apr-2024 12:00Overcast Clouds26°C4 mph, E85%10000m1010hPa88%
23-Apr-2024 15:00Broken Clouds25°C4 mph, E75%10000m1009hPa90%
23-Apr-2024 18:00Light Rain25°C7 mph, E87%10000m1008hPa90%
23-Apr-2024 21:00Light Rain26°C4 mph, E62%10000m1010hPa87%
24-Apr-2024 00:00Light Rain30°C7 mph, SE53%10000m1010hPa69%